sensor_id;sensor_type;location;lat;lon;timestamp;temperature;humidity
40374;DHT22;26079;45.958;12.492;2023-08-07T00:01:13;15.90;99.90
40374;DHT22;26079;45.958;12.492;2023-08-07T00:03:38;15.80;99.90
40374;DHT22;26079;45.958;12.492;2023-08-07T00:06:04;15.70;99.90
40374;DHT22;26079;45.958;12.492;2023-08-07T00:08:30;15.70;99.90
40374;DHT22;26079;45.958;12.492;2023-08-07T00:11:09;15.70;99.90
40374;DHT22;26079;45.958;12.492;2023-08-07T00:13:35;15.60;99.90
40374;DHT22;26079;45.958;12.492;2023-08-07T00:16:01;15.50;99.90
40374;DHT22;26079;45.958;12.492;2023-08-07T00:18:28;15.50;99.90
40374;DHT22;26079;45.958;12.492;2023-08-07T00:20:54;15.40;99.90
40374;DHT22;26079;45.958;12.492;2023-08-07T00:23:20;15.40;99.90
40374;DHT22;26079;45.958;12.492;2023-08-07T00:25:45;15.40;99.90
40374;DHT22;26079;45.958;12.492;2023-08-07T00:28:11;15.40;99.90
40374;DHT22;26079;45.958;12.492;2023-08-07T00:30:37;15.40;99.90
40374;DHT22;26079;45.958;12.492;2023-08-07T00:33:02;15.40;99.90
40374;DHT22;26079;45.958;12.492;2023-08-07T00:35:28;15.40;99.90
40374;DHT22;26079;45.958;12.492;2023-08-07T00:37:54;15.40;99.90
40374;DHT22;26079;45.958;12.492;2023-08-07T00:40:19;15.40;99.90
40374;DHT22;26079;45.958;12.492;2023-08-07T00:42:45;15.40;99.90
40374;DHT22;26079;45.958;12.492;2023-08-07T00:45:11;15.40;99.90
40374;DHT22;26079;45.958;12.492;2023-08-07T00:47:37;15.40;99.90
40374;DHT22;26079;45.958;12.492;2023-08-07T00:50:04;15.50;99.90
40374;DHT22;26079;45.958;12.492;2023-08-07T00:52:30;15.50;99.90
40374;DHT22;26079;45.958;12.492;2023-08-07T00:54:57;15.50;99.90
40374;DHT22;26079;45.958;12.492;2023-08-07T00:57:23;15.40;99.90
40374;DHT22;26079;45.958;12.492;2023-08-07T00:59:50;15.40;99.90
40374;DHT22;26079;45.958;12.492;2023-08-07T01:02:15;15.40;99.90
40374;DHT22;26079;45.958;12.492;2023-08-07T01:04:42;15.40;99.90
40374;DHT22;26079;45.958;12.492;2023-08-07T01:07:08;15.40;99.90
40374;DHT22;26079;45.958;12.492;2023-08-07T01:09:33;15.30;99.90
40374;DHT22;26079;45.958;12.492;2023-08-07T01:12:19;15.20;99.90
40374;DHT22;26079;45.958;12.492;2023-08-07T01:14:58;15.10;99.90
40374;DHT22;26079;45.958;12.492;2023-08-07T01:17:27;15.10;99.90
40374;DHT22;26079;45.958;12.492;2023-08-07T01:19:54;14.90;99.90
40374;DHT22;26079;45.958;12.492;2023-08-07T01:22:20;14.80;99.90
40374;DHT22;26079;45.958;12.492;2023-08-07T01:24:48;14.80;99.90
40374;DHT22;26079;45.958;12.492;2023-08-07T01:32:19;14.70;99.90
40374;DHT22;26079;45.958;12.492;2023-08-07T01:34:47;14.70;99.90
40374;DHT22;26079;45.958;12.492;2023-08-07T01:37:13;14.70;99.90
40374;DHT22;26079;45.958;12.492;2023-08-07T01:39:41;14.60;99.90
40374;DHT22;26079;45.958;12.492;2023-08-07T01:42:07;14.60;99.90
40374;DHT22;26079;45.958;12.492;2023-08-07T01:44:33;14.50;99.90
40374;DHT22;26079;45.958;12.492;2023-08-07T01:46:59;14.50;99.90
40374;DHT22;26079;45.958;12.492;2023-08-07T01:49:25;14.50;99.90
40374;DHT22;26079;45.958;12.492;2023-08-07T01:51:50;14.50;99.90
40374;DHT22;26079;45.958;12.492;2023-08-07T01:54:16;14.60;99.90
40374;DHT22;26079;45.958;12.492;2023-08-07T01:56:42;14.50;99.90
40374;DHT22;26079;45.958;12.492;2023-08-07T01:59:07;14.50;99.90
40374;DHT22;26079;45.958;12.492;2023-08-07T02:01:33;14.40;99.90
40374;DHT22;26079;45.958;12.492;2023-08-07T02:03:59;14.40;99.90
40374;DHT22;26079;45.958;12.492;2023-08-07T02:06:24;14.50;99.90
40374;DHT22;26079;45.958;12.492;2023-08-07T02:08:50;14.40;99.90
40374;DHT22;26079;45.958;12.492;2023-08-07T02:11:16;14.40;99.90
40374;DHT22;26079;45.958;12.492;2023-08-07T02:13:41;14.40;99.90
40374;DHT22;26079;45.958;12.492;2023-08-07T02:16:07;14.30;99.90
40374;DHT22;26079;45.958;12.492;2023-08-07T02:18:32;14.40;99.90
40374;DHT22;26079;45.958;12.492;2023-08-07T02:20:58;14.40;99.90
40374;DHT22;26079;45.958;12.492;2023-08-07T02:23:24;14.40;99.90
40374;DHT22;26079;45.958;12.492;2023-08-07T02:25:51;14.50;99.90
40374;DHT22;26079;45.958;12.492;2023-08-07T02:28:17;14.50;99.90
40374;DHT22;26079;45.958;12.492;2023-08-07T02:30:45;14.60;99.90
40374;DHT22;26079;45.958;12.492;2023-08-07T02:33:14;14.60;99.90
40374;DHT22;26079;45.958;12.492;2023-08-07T02:35:40;14.60;99.90
40374;DHT22;26079;45.958;12.492;2023-08-07T02:38:05;14.60;99.90
40374;DHT22;26079;45.958;12.492;2023-08-07T02:40:31;14.50;99.90
40374;DHT22;26079;45.958;12.492;2023-08-07T02:42:57;14.50;99.90
40374;DHT22;26079;45.958;12.492;2023-08-07T02:45:22;14.40;99.90
40374;DHT22;26079;45.958;12.492;2023-08-07T02:47:48;14.40;99.90
40374;DHT22;26079;45.958;12.492;2023-08-07T02:50:13;14.30;99.90
40374;DHT22;26079;45.958;12.492;2023-08-07T02:52:39;14.20;99.90
40374;DHT22;26079;45.958;12.492;2023-08-07T02:55:05;14.20;99.90
40374;DHT22;26079;45.958;12.492;2023-08-07T02:57:31;14.20;99.90
40374;DHT22;26079;45.958;12.492;2023-08-07T02:59:56;14.20;99.90
40374;DHT22;26079;45.958;12.492;2023-08-07T03:02:22;14.20;99.90
40374;DHT22;26079;45.958;12.492;2023-08-07T03:04:48;14.00;99.90
40374;DHT22;26079;45.958;12.492;2023-08-07T03:07:13;14.00;99.90
40374;DHT22;26079;45.958;12.492;2023-08-07T03:09:39;14.00;99.90
40374;DHT22;26079;45.958;12.492;2023-08-07T03:12:05;14.00;99.90
40374;DHT22;26079;45.958;12.492;2023-08-07T03:14:31;13.90;99.90
40374;DHT22;26079;45.958;12.492;2023-08-07T03:16:57;14.00;99.90
40374;DHT22;26079;45.958;12.492;2023-08-07T03:19:22;13.90;99.90
40374;DHT22;26079;45.958;12.492;2023-08-07T03:21:49;14.00;99.90
40374;DHT22;26079;45.958;12.492;2023-08-07T03:24:14;14.00;99.90
40374;DHT22;26079;45.958;12.492;2023-08-07T03:26:40;14.00;99.90
40374;DHT22;26079;45.958;12.492;2023-08-07T03:29:06;14.10;99.90
40374;DHT22;26079;45.958;12.492;2023-08-07T03:31:32;14.10;99.90
40374;DHT22;26079;45.958;12.492;2023-08-07T03:33:57;14.10;99.90
40374;DHT22;26079;45.958;12.492;2023-08-07T03:36:24;14.10;99.90
40374;DHT22;26079;45.958;12.492;2023-08-07T03:38:49;14.10;99.90
40374;DHT22;26079;45.958;12.492;2023-08-07T03:41:15;14.10;99.90
40374;DHT22;26079;45.958;12.492;2023-08-07T03:43:41;14.00;99.90
40374;DHT22;26079;45.958;12.492;2023-08-07T03:46:07;14.00;99.90
40374;DHT22;26079;45.958;12.492;2023-08-07T03:48:32;13.90;99.90
40374;DHT22;26079;45.958;12.492;2023-08-07T03:51:05;13.80;99.90
40374;DHT22;26079;45.958;12.492;2023-08-07T03:53:33;13.80;99.90
40374;DHT22;26079;45.958;12.492;2023-08-07T03:55:59;13.60;99.90
40374;DHT22;26079;45.958;12.492;2023-08-07T03:58:25;13.60;99.90
40374;DHT22;26079;45.958;12.492;2023-08-07T04:00:51;13.60;99.90
40374;DHT22;26079;45.958;12.492;2023-08-07T04:03:18;13.60;99.90
40374;DHT22;26079;45.958;12.492;2023-08-07T04:05:44;13.50;99.90
40374;DHT22;26079;45.958;12.492;2023-08-07T04:08:09;13.40;99.90
40374;DHT22;26079;45.958;12.492;2023-08-07T04:10:35;13.40;99.90
40374;DHT22;26079;45.958;12.492;2023-08-07T04:13:01;13.40;99.90
40374;DHT22;26079;45.958;12.492;2023-08-07T04:15:26;13.50;99.90
40374;DHT22;26079;45.958;12.492;2023-08-07T04:17:52;13.50;99.90
40374;DHT22;26079;45.958;12.492;2023-08-07T04:20:18;13.50;99.90
40374;DHT22;26079;45.958;12.492;2023-08-07T04:22:45;13.60;99.90
40374;DHT22;26079;45.958;12.492;2023-08-07T04:25:12;13.60;99.90
40374;DHT22;26079;45.958;12.492;2023-08-07T04:27:38;13.70;99.90
40374;DHT22;26079;45.958;12.492;2023-08-07T04:30:05;13.60;99.90
40374;DHT22;26079;45.958;12.492;2023-08-07T04:32:31;13.60;99.90
40374;DHT22;26079;45.958;12.492;2023-08-07T04:34:57;13.70;99.90
40374;DHT22;26079;45.958;12.492;2023-08-07T04:37:23;13.70;99.90
40374;DHT22;26079;45.958;12.492;2023-08-07T04:39:48;13.70;99.90
40374;DHT22;26079;45.958;12.492;2023-08-07T04:42:14;13.60;99.90
40374;DHT22;26079;45.958;12.492;2023-08-07T04:44:40;13.60;99.90
40374;DHT22;26079;45.958;12.492;2023-08-07T04:47:05;13.70;99.90
40374;DHT22;26079;45.958;12.492;2023-08-07T04:49:31;13.80;99.90
40374;DHT22;26079;45.958;12.492;2023-08-07T04:51:57;13.90;99.90
40374;DHT22;26079;45.958;12.492;2023-08-07T04:54:22;14.00;99.90
40374;DHT22;26079;45.958;12.492;2023-08-07T04:56:48;14.00;99.90
40374;DHT22;26079;45.958;12.492;2023-08-07T04:59:14;13.90;99.90
40374;DHT22;26079;45.958;12.492;2023-08-07T05:01:39;14.00;99.90
40374;DHT22;26079;45.958;12.492;2023-08-07T05:04:05;14.00;99.90
40374;DHT22;26079;45.958;12.492;2023-08-07T05:06:31;14.10;99.90
40374;DHT22;26079;45.958;12.492;2023-08-07T05:08:57;14.20;99.90
40374;DHT22;26079;45.958;12.492;2023-08-07T05:11:23;14.30;99.90
40374;DHT22;26079;45.958;12.492;2023-08-07T05:13:48;14.50;99.90
40374;DHT22;26079;45.958;12.492;2023-08-07T05:16:14;14.60;99.90
40374;DHT22;26079;45.958;12.492;2023-08-07T05:18:40;14.60;99.90
40374;DHT22;26079;45.958;12.492;2023-08-07T05:21:05;14.70;99.90
40374;DHT22;26079;45.958;12.492;2023-08-07T05:23:34;14.70;99.90
40374;DHT22;26079;45.958;12.492;2023-08-07T05:25:59;14.80;99.90
40374;DHT22;26079;45.958;12.492;2023-08-07T05:28:25;14.80;99.90
40374;DHT22;26079;45.958;12.492;2023-08-07T05:30:51;14.90;99.90
40374;DHT22;26079;45.958;12.492;2023-08-07T05:33:16;14.90;99.90
40374;DHT22;26079;45.958;12.492;2023-08-07T05:35:42;15.10;99.90
40374;DHT22;26079;45.958;12.492;2023-08-07T05:38:08;15.10;99.90
40374;DHT22;26079;45.958;12.492;2023-08-07T05:40:33;15.20;99.90
40374;DHT22;26079;45.958;12.492;2023-08-07T05:43:02;15.30;99.90
40374;DHT22;26079;45.958;12.492;2023-08-07T05:45:27;15.50;99.90
40374;DHT22;26079;45.958;12.492;2023-08-07T05:47:53;15.60;99.90
40374;DHT22;26079;45.958;12.492;2023-08-07T05:50:19;15.80;99.90
40374;DHT22;26079;45.958;12.492;2023-08-07T05:52:45;16.00;99.90
40374;DHT22;26079;45.958;12.492;2023-08-07T05:55:11;16.20;99.90
40374;DHT22;26079;45.958;12.492;2023-08-07T05:57:36;16.40;99.90
40374;DHT22;26079;45.958;12.492;2023-08-07T06:00:03;16.70;99.90
40374;DHT22;26079;45.958;12.492;2023-08-07T06:02:29;16.90;99.90
40374;DHT22;26079;45.958;12.492;2023-08-07T06:04:54;17.10;99.90
40374;DHT22;26079;45.958;12.492;2023-08-07T06:07:20;17.10;99.90
40374;DHT22;26079;45.958;12.492;2023-08-07T06:09:46;17.20;99.90
40374;DHT22;26079;45.958;12.492;2023-08-07T06:12:11;17.40;99.90
40374;DHT22;26079;45.958;12.492;2023-08-07T06:14:37;17.50;99.90
40374;DHT22;26079;45.958;12.492;2023-08-07T06:17:04;17.70;99.90
40374;DHT22;26079;45.958;12.492;2023-08-07T06:19:29;17.80;99.70
40374;DHT22;26079;45.958;12.492;2023-08-07T06:21:55;17.80;98.00
40374;DHT22;26079;45.958;12.492;2023-08-07T06:24:21;17.80;97.60
40374;DHT22;26079;45.958;12.492;2023-08-07T06:26:47;17.90;98.70
40374;DHT22;26079;45.958;12.492;2023-08-07T06:29:13;18.00;98.70
40374;DHT22;26079;45.958;12.492;2023-08-07T06:31:38;18.00;97.70
40374;DHT22;26079;45.958;12.492;2023-08-07T06:34:04;18.10;98.60
40374;DHT22;26079;45.958;12.492;2023-08-07T06:36:30;18.20;97.90
40374;DHT22;26079;45.958;12.492;2023-08-07T06:38:55;18.30;98.70
40374;DHT22;26079;45.958;12.492;2023-08-07T06:41:21;18.40;98.30
40374;DHT22;26079;45.958;12.492;2023-08-07T06:43:47;18.50;97.10
40374;DHT22;26079;45.958;12.492;2023-08-07T06:46:12;18.60;96.50
40374;DHT22;26079;45.958;12.492;2023-08-07T06:48:38;18.70;97.00
40374;DHT22;26079;45.958;12.492;2023-08-07T06:51:04;18.70;96.40
40374;DHT22;26079;45.958;12.492;2023-08-07T06:53:29;18.80;96.60
40374;DHT22;26079;45.958;12.492;2023-08-07T06:55:55;18.90;97.60
40374;DHT22;26079;45.958;12.492;2023-08-07T06:58:21;18.90;96.30
40374;DHT22;26079;45.958;12.492;2023-08-07T07:00:46;19.00;95.60
40374;DHT22;26079;45.958;12.492;2023-08-07T07:03:12;19.10;95.90
40374;DHT22;26079;45.958;12.492;2023-08-07T07:05:38;19.10;96.60
40374;DHT22;26079;45.958;12.492;2023-08-07T07:08:04;19.20;96.10
40374;DHT22;26079;45.958;12.492;2023-08-07T07:10:30;19.20;94.60
40374;DHT22;26079;45.958;12.492;2023-08-07T07:12:55;19.30;94.30
40374;DHT22;26079;45.958;12.492;2023-08-07T07:15:21;19.40;94.50
40374;DHT22;26079;45.958;12.492;2023-08-07T07:17:47;19.50;93.30
40374;DHT22;26079;45.958;12.492;2023-08-07T07:20:13;19.60;93.30
40374;DHT22;26079;45.958;12.492;2023-08-07T07:22:38;19.70;92.10
40374;DHT22;26079;45.958;12.492;2023-08-07T07:25:05;19.80;91.00
40374;DHT22;26079;45.958;12.492;2023-08-07T07:27:30;19.90;91.00
40374;DHT22;26079;45.958;12.492;2023-08-07T07:29:56;20.00;90.40
40374;DHT22;26079;45.958;12.492;2023-08-07T07:32:22;20.10;89.40
40374;DHT22;26079;45.958;12.492;2023-08-07T07:34:47;20.20;87.90
40374;DHT22;26079;45.958;12.492;2023-08-07T07:37:13;20.20;88.20
40374;DHT22;26079;45.958;12.492;2023-08-07T07:39:40;20.20;87.70
40374;DHT22;26079;45.958;12.492;2023-08-07T07:42:07;20.30;88.00
40374;DHT22;26079;45.958;12.492;2023-08-07T07:44:33;20.40;87.60
40374;DHT22;26079;45.958;12.492;2023-08-07T07:47:02;20.50;86.20
40374;DHT22;26079;45.958;12.492;2023-08-07T07:49:27;20.50;85.80
40374;DHT22;26079;45.958;12.492;2023-08-07T07:51:53;20.60;85.80
40374;DHT22;26079;45.958;12.492;2023-08-07T07:54:19;20.60;86.50
40374;DHT22;26079;45.958;12.492;2023-08-07T07:56:44;20.60;85.80
40374;DHT22;26079;45.958;12.492;2023-08-07T07:59:12;20.60;86.50
40374;DHT22;26079;45.958;12.492;2023-08-07T08:01:38;20.50;86.20
40374;DHT22;26079;45.958;12.492;2023-08-07T08:04:04;20.60;86.10
40374;DHT22;26079;45.958;12.492;2023-08-07T08:06:30;20.60;86.60
40374;DHT22;26079;45.958;12.492;2023-08-07T08:08:56;20.70;86.40
40374;DHT22;26079;45.958;12.492;2023-08-07T08:11:22;20.80;85.40
40374;DHT22;26079;45.958;12.492;2023-08-07T08:13:48;20.90;84.80
40374;DHT22;26079;45.958;12.492;2023-08-07T08:16:14;20.90;83.90
40374;DHT22;26079;45.958;12.492;2023-08-07T08:18:40;20.90;84.60
40374;DHT22;26079;45.958;12.492;2023-08-07T08:21:06;20.80;84.00
40374;DHT22;26079;45.958;12.492;2023-08-07T08:23:32;20.90;84.00
40374;DHT22;26079;45.958;12.492;2023-08-07T08:25:58;21.00;84.10
40374;DHT22;26079;45.958;12.492;2023-08-07T08:28:23;21.10;85.30
40374;DHT22;26079;45.958;12.492;2023-08-07T08:30:49;21.30;84.80
40374;DHT22;26079;45.958;12.492;2023-08-07T08:33:15;21.30;84.10
40374;DHT22;26079;45.958;12.492;2023-08-07T08:35:41;21.30;82.10
40374;DHT22;26079;45.958;12.492;2023-08-07T08:38:06;21.20;82.30
40374;DHT22;26079;45.958;12.492;2023-08-07T08:40:33;21.20;83.90
40374;DHT22;26079;45.958;12.492;2023-08-07T08:43:00;21.20;82.60
40374;DHT22;26079;45.958;12.492;2023-08-07T08:45:27;21.30;84.50
40374;DHT22;26079;45.958;12.492;2023-08-07T08:47:55;21.40;83.80
40374;DHT22;26079;45.958;12.492;2023-08-07T08:50:23;21.50;82.10
40374;DHT22;26079;45.958;12.492;2023-08-07T08:52:51;21.50;81.60
40374;DHT22;26079;45.958;12.492;2023-08-07T08:55:20;21.40;81.80
40374;DHT22;26079;45.958;12.492;2023-08-07T08:57:46;21.30;82.60
40374;DHT22;26079;45.958;12.492;2023-08-07T09:00:14;21.30;82.50
40374;DHT22;26079;45.958;12.492;2023-08-07T09:02:44;21.20;81.80
40374;DHT22;26079;45.958;12.492;2023-08-07T09:05:10;21.30;82.80
40374;DHT22;26079;45.958;12.492;2023-08-07T09:07:35;21.30;84.30
40374;DHT22;26079;45.958;12.492;2023-08-07T09:10:03;21.50;86.00
40374;DHT22;26079;45.958;12.492;2023-08-07T09:12:32;21.70;82.80
40374;DHT22;26079;45.958;12.492;2023-08-07T09:14:58;21.70;81.70
40374;DHT22;26079;45.958;12.492;2023-08-07T09:17:28;21.60;81.00
40374;DHT22;26079;45.958;12.492;2023-08-07T09:19:55;21.60;82.00
40374;DHT22;26079;45.958;12.492;2023-08-07T09:22:21;21.50;82.30
40374;DHT22;26079;45.958;12.492;2023-08-07T09:24:47;21.50;81.50
40374;DHT22;26079;45.958;12.492;2023-08-07T09:27:13;21.80;82.80
40374;DHT22;26079;45.958;12.492;2023-08-07T09:29:43;22.00;82.00
40374;DHT22;26079;45.958;12.492;2023-08-07T09:32:12;22.10;82.50
40374;DHT22;26079;45.958;12.492;2023-08-07T09:34:42;22.10;82.80
40374;DHT22;26079;45.958;12.492;2023-08-07T09:37:10;22.10;81.00
40374;DHT22;26079;45.958;12.492;2023-08-07T09:39:37;22.10;80.00
40374;DHT22;26079;45.958;12.492;2023-08-07T09:42:03;22.20;80.40
40374;DHT22;26079;45.958;12.492;2023-08-07T09:44:36;22.30;79.30
40374;DHT22;26079;45.958;12.492;2023-08-07T09:47:15;22.30;79.10
40374;DHT22;26079;45.958;12.492;2023-08-07T09:49:42;22.30;79.10
40374;DHT22;26079;45.958;12.492;2023-08-07T09:52:09;22.20;78.30
40374;DHT22;26079;45.958;12.492;2023-08-07T09:54:35;22.20;78.60
40374;DHT22;26079;45.958;12.492;2023-08-07T09:57:02;22.20;79.70
40374;DHT22;26079;45.958;12.492;2023-08-07T09:59:28;22.30;79.30
40374;DHT22;26079;45.958;12.492;2023-08-07T10:01:55;22.60;79.20
40374;DHT22;26079;45.958;12.492;2023-08-07T10:04:24;22.80;76.60
40374;DHT22;26079;45.958;12.492;2023-08-07T10:06:51;22.80;74.70
40374;DHT22;26079;45.958;12.492;2023-08-07T10:09:16;22.90;77.70
40374;DHT22;26079;45.958;12.492;2023-08-07T10:11:42;23.00;76.10
40374;DHT22;26079;45.958;12.492;2023-08-07T10:14:09;23.20;72.60
40374;DHT22;26079;45.958;12.492;2023-08-07T10:16:35;23.20;73.80
40374;DHT22;26079;45.958;12.492;2023-08-07T10:19:06;23.30;76.00
40374;DHT22;26079;45.958;12.492;2023-08-07T10:21:36;23.30;71.90
40374;DHT22;26079;45.958;12.492;2023-08-07T10:24:07;23.20;71.40
40374;DHT22;26079;45.958;12.492;2023-08-07T10:26:39;23.20;73.40
40374;DHT22;26079;45.958;12.492;2023-08-07T10:29:07;23.30;71.90
40374;DHT22;26079;45.958;12.492;2023-08-07T10:31:35;23.50;69.10
40374;DHT22;26079;45.958;12.492;2023-08-07T10:34:02;23.70;69.70
40374;DHT22;26079;45.958;12.492;2023-08-07T10:36:34;23.80;68.70
40374;DHT22;26079;45.958;12.492;2023-08-07T10:39:10;24.00;67.40
40374;DHT22;26079;45.958;12.492;2023-08-07T10:41:47;24.00;67.00
40374;DHT22;26079;45.958;12.492;2023-08-07T10:44:44;24.10;69.30
40374;DHT22;26079;45.958;12.492;2023-08-07T10:47:05;24.20;68.00
40374;DHT22;26079;45.958;12.492;2023-08-07T10:49:41;24.20;69.70
40374;DHT22;26079;45.958;12.492;2023-08-07T10:52:12;24.30;72.80
40374;DHT22;26079;45.958;12.492;2023-08-07T10:54:48;24.40;69.20
40374;DHT22;26079;45.958;12.492;2023-08-07T10:57:16;24.50;71.00
40374;DHT22;26079;45.958;12.492;2023-08-07T11:00:02;24.70;70.40
40374;DHT22;26079;45.958;12.492;2023-08-07T11:02:37;24.90;70.30
40374;DHT22;26079;45.958;12.492;2023-08-07T11:05:05;24.90;68.30
40374;DHT22;26079;45.958;12.492;2023-08-07T11:07:31;24.80;67.30
40374;DHT22;26079;45.958;12.492;2023-08-07T11:09:58;24.60;64.30
40374;DHT22;26079;45.958;12.492;2023-08-07T11:12:25;24.40;66.90
40374;DHT22;26079;45.958;12.492;2023-08-07T11:14:52;24.40;67.80
40374;DHT22;26079;45.958;12.492;2023-08-07T11:17:18;24.40;70.00
40374;DHT22;26079;45.958;12.492;2023-08-07T11:19:47;24.50;68.90
40374;DHT22;26079;45.958;12.492;2023-08-07T11:22:15;24.60;70.10
40374;DHT22;26079;45.958;12.492;2023-08-07T11:24:41;24.70;67.80
40374;DHT22;26079;45.958;12.492;2023-08-07T11:27:08;24.80;66.10
40374;DHT22;26079;45.958;12.492;2023-08-07T11:29:33;24.80;66.40
40374;DHT22;26079;45.958;12.492;2023-08-07T11:31:59;24.80;68.50
40374;DHT22;26079;45.958;12.492;2023-08-07T11:34:25;24.90;67.00
40374;DHT22;26079;45.958;12.492;2023-08-07T11:36:51;25.00;68.80
40374;DHT22;26079;45.958;12.492;2023-08-07T11:39:17;25.10;70.20
40374;DHT22;26079;45.958;12.492;2023-08-07T11:41:44;25.20;71.70
40374;DHT22;26079;45.958;12.492;2023-08-07T11:44:10;25.20;67.70
40374;DHT22;26079;45.958;12.492;2023-08-07T11:46:36;25.30;69.00
40374;DHT22;26079;45.958;12.492;2023-08-07T11:49:02;25.30;66.60
40374;DHT22;26079;45.958;12.492;2023-08-07T11:51:30;25.30;64.80
40374;DHT22;26079;45.958;12.492;2023-08-07T11:53:56;25.20;65.00
40374;DHT22;26079;45.958;12.492;2023-08-07T11:56:24;25.20;66.00
40374;DHT22;26079;45.958;12.492;2023-08-07T11:58:51;25.40;67.70
40374;DHT22;26079;45.958;12.492;2023-08-07T12:01:19;25.30;65.30
40374;DHT22;26079;45.958;12.492;2023-08-07T12:03:57;25.30;65.10
40374;DHT22;26079;45.958;12.492;2023-08-07T12:06:34;25.30;66.10
40374;DHT22;26079;45.958;12.492;2023-08-07T12:09:01;25.40;64.70
40374;DHT22;26079;45.958;12.492;2023-08-07T12:11:29;25.50;66.00
40374;DHT22;26079;45.958;12.492;2023-08-07T12:13:55;25.70;66.00
40374;DHT22;26079;45.958;12.492;2023-08-07T12:16:21;25.70;63.70
40374;DHT22;26079;45.958;12.492;2023-08-07T12:18:51;25.70;64.70
40374;DHT22;26079;45.958;12.492;2023-08-07T12:21:22;25.60;65.40
40374;DHT22;26079;45.958;12.492;2023-08-07T12:23:51;25.70;64.10
40374;DHT22;26079;45.958;12.492;2023-08-07T12:26:17;25.70;65.60
40374;DHT22;26079;45.958;12.492;2023-08-07T12:28:43;25.70;62.60
40374;DHT22;26079;45.958;12.492;2023-08-07T12:31:09;25.70;62.00
40374;DHT22;26079;45.958;12.492;2023-08-07T12:33:35;25.60;61.60
40374;DHT22;26079;45.958;12.492;2023-08-07T12:36:01;25.50;62.70
40374;DHT22;26079;45.958;12.492;2023-08-07T12:38:27;25.50;61.40
40374;DHT22;26079;45.958;12.492;2023-08-07T12:40:53;25.60;65.80
40374;DHT22;26079;45.958;12.492;2023-08-07T12:43:19;25.70;62.10
40374;DHT22;26079;45.958;12.492;2023-08-07T12:45:45;25.60;62.70
40374;DHT22;26079;45.958;12.492;2023-08-07T12:48:11;25.50;64.50
40374;DHT22;26079;45.958;12.492;2023-08-07T12:50:38;25.60;65.30
40374;DHT22;26079;45.958;12.492;2023-08-07T12:53:04;25.50;61.70
40374;DHT22;26079;45.958;12.492;2023-08-07T12:55:30;25.60;62.90
40374;DHT22;26079;45.958;12.492;2023-08-07T12:57:56;25.70;66.90
40374;DHT22;26079;45.958;12.492;2023-08-07T13:00:22;25.60;60.90
40374;DHT22;26079;45.958;12.492;2023-08-07T13:02:49;25.70;60.70
40374;DHT22;26079;45.958;12.492;2023-08-07T13:05:16;25.70;61.00
40374;DHT22;26079;45.958;12.492;2023-08-07T13:07:47;25.70;61.40
40374;DHT22;26079;45.958;12.492;2023-08-07T13:10:17;25.80;60.10
40374;DHT22;26079;45.958;12.492;2023-08-07T13:12:44;25.80;62.20
40374;DHT22;26079;45.958;12.492;2023-08-07T13:15:13;25.80;60.00
40374;DHT22;26079;45.958;12.492;2023-08-07T13:17:39;25.90;62.00
40374;DHT22;26079;45.958;12.492;2023-08-07T13:20:06;26.00;59.10
40374;DHT22;26079;45.958;12.492;2023-08-07T13:22:38;26.10;58.40
40374;DHT22;26079;45.958;12.492;2023-08-07T13:25:04;26.30;56.90
40374;DHT22;26079;45.958;12.492;2023-08-07T13:27:31;26.30;56.80
40374;DHT22;26079;45.958;12.492;2023-08-07T13:29:57;26.40;59.20
40374;DHT22;26079;45.958;12.492;2023-08-07T13:32:22;26.30;57.40
40374;DHT22;26079;45.958;12.492;2023-08-07T13:34:48;26.20;57.70
40374;DHT22;26079;45.958;12.492;2023-08-07T13:37:14;26.20;57.70
40374;DHT22;26079;45.958;12.492;2023-08-07T13:39:40;26.10;56.10
40374;DHT22;26079;45.958;12.492;2023-08-07T13:42:06;25.80;62.00
40374;DHT22;26079;45.958;12.492;2023-08-07T13:44:32;25.60;60.10
40374;DHT22;26079;45.958;12.492;2023-08-07T13:46:58;25.40;62.90
40374;DHT22;26079;45.958;12.492;2023-08-07T13:49:24;25.20;57.60
40374;DHT22;26079;45.958;12.492;2023-08-07T13:51:50;25.20;60.70
40374;DHT22;26079;45.958;12.492;2023-08-07T13:54:16;25.00;61.20
40374;DHT22;26079;45.958;12.492;2023-08-07T13:56:41;25.00;62.50
40374;DHT22;26079;45.958;12.492;2023-08-07T13:59:07;24.90;61.00
40374;DHT22;26079;45.958;12.492;2023-08-07T14:01:34;25.00;62.70
40374;DHT22;26079;45.958;12.492;2023-08-07T14:04:01;25.00;63.20
40374;DHT22;26079;45.958;12.492;2023-08-07T14:06:27;25.10;63.60
40374;DHT22;26079;45.958;12.492;2023-08-07T14:08:53;25.10;63.80
40374;DHT22;26079;45.958;12.492;2023-08-07T14:11:18;25.00;68.40
40374;DHT22;26079;45.958;12.492;2023-08-07T14:13:45;24.90;63.00
40374;DHT22;26079;45.958;12.492;2023-08-07T14:16:12;24.90;63.90
40374;DHT22;26079;45.958;12.492;2023-08-07T14:18:37;24.80;60.00
40374;DHT22;26079;45.958;12.492;2023-08-07T14:21:03;24.90;59.80
40374;DHT22;26079;45.958;12.492;2023-08-07T14:23:30;24.90;62.60
40374;DHT22;26079;45.958;12.492;2023-08-07T14:25:55;24.90;61.50
40374;DHT22;26079;45.958;12.492;2023-08-07T14:28:21;25.00;63.90
40374;DHT22;26079;45.958;12.492;2023-08-07T14:30:48;25.10;63.60
40374;DHT22;26079;45.958;12.492;2023-08-07T14:33:13;25.10;58.40
40374;DHT22;26079;45.958;12.492;2023-08-07T14:35:39;25.30;57.90
40374;DHT22;26079;45.958;12.492;2023-08-07T14:38:05;25.50;57.70
40374;DHT22;26079;45.958;12.492;2023-08-07T14:40:31;25.80;65.20
40374;DHT22;26079;45.958;12.492;2023-08-07T14:42:57;26.00;59.70
40374;DHT22;26079;45.958;12.492;2023-08-07T14:45:22;26.30;57.60
40374;DHT22;26079;45.958;12.492;2023-08-07T14:47:49;26.40;57.70
40374;DHT22;26079;45.958;12.492;2023-08-07T14:50:15;26.40;56.50
40374;DHT22;26079;45.958;12.492;2023-08-07T14:52:42;26.40;56.20
40374;DHT22;26079;45.958;12.492;2023-08-07T14:55:08;26.40;56.50
40374;DHT22;26079;45.958;12.492;2023-08-07T14:57:34;26.40;56.30
40374;DHT22;26079;45.958;12.492;2023-08-07T15:00:00;26.30;57.00
40374;DHT22;26079;45.958;12.492;2023-08-07T15:02:25;26.30;57.90
40374;DHT22;26079;45.958;12.492;2023-08-07T15:04:51;26.30;58.00
40374;DHT22;26079;45.958;12.492;2023-08-07T15:07:17;26.20;58.80
40374;DHT22;26079;45.958;12.492;2023-08-07T15:09:43;26.20;58.50
40374;DHT22;26079;45.958;12.492;2023-08-07T15:12:09;26.00;58.20
40374;DHT22;26079;45.958;12.492;2023-08-07T15:14:35;25.90;57.70
40374;DHT22;26079;45.958;12.492;2023-08-07T15:17:00;25.70;58.00